sensor_id;sensor_type;location;lat;lon;timestamp;P1;durP1;ratioP1;P2;durP2;ratioP2
40669;SDS011;26355;45.528;9.234;2023-03-01T00:00:44;43.60;;;27.88;;
40669;SDS011;26355;45.528;9.234;2023-03-01T00:03:11;42.90;;;28.20;;
40669;SDS011;26355;45.528;9.234;2023-03-01T00:05:43;44.88;;;28.52;;
40669;SDS011;26355;45.528;9.234;2023-03-01T00:08:11;45.08;;;29.67;;
40669;SDS011;26355;45.528;9.234;2023-03-01T00:10:37;45.00;;;28.70;;
40669;SDS011;26355;45.528;9.234;2023-03-01T00:13:02;45.13;;;27.52;;
40669;SDS011;26355;45.528;9.234;2023-03-01T00:15:30;42.55;;;27.98;;
40669;SDS011;26355;45.528;9.234;2023-03-01T00:17:56;41.13;;;27.85;;
40669;SDS011;26355;45.528;9.234;2023-03-01T00:20:22;44.97;;;28.33;;
40669;SDS011;26355;45.528;9.234;2023-03-01T00:22:47;46.00;;;30.23;;
40669;SDS011;26355;45.528;9.234;2023-03-01T00:25:13;46.70;;;30.60;;
40669;SDS011;26355;45.528;9.234;2023-03-01T00:27:38;45.00;;;29.02;;
40669;SDS011;26355;45.528;9.234;2023-03-01T00:30:04;45.05;;;29.67;;
40669;SDS011;26355;45.528;9.234;2023-03-01T00:32:30;44.15;;;27.77;;
40669;SDS011;26355;45.528;9.234;2023-03-01T00:34:56;43.35;;;27.63;;
40669;SDS011;26355;45.528;9.234;2023-03-01T00:37:21;40.08;;;25.48;;
40669;SDS011;26355;45.528;9.234;2023-03-01T00:39:48;41.67;;;27.20;;
40669;SDS011;26355;45.528;9.234;2023-03-01T00:42:13;41.95;;;26.75;;
40669;SDS011;26355;45.528;9.234;2023-03-01T00:44:39;42.75;;;26.00;;
40669;SDS011;26355;45.528;9.234;2023-03-01T00:47:05;40.70;;;26.25;;
40669;SDS011;26355;45.528;9.234;2023-03-01T00:49:31;41.22;;;25.17;;
40669;SDS011;26355;45.528;9.234;2023-03-01T00:51:56;41.70;;;26.50;;
40669;SDS011;26355;45.528;9.234;2023-03-01T00:54:22;42.83;;;26.45;;
40669;SDS011;26355;45.528;9.234;2023-03-01T00:56:47;43.45;;;26.38;;
40669;SDS011;26355;45.528;9.234;2023-03-01T00:59:13;39.08;;;24.90;;
40669;SDS011;26355;45.528;9.234;2023-03-01T01:01:39;39.70;;;25.88;;
40669;SDS011;26355;45.528;9.234;2023-03-01T01:04:09;40.28;;;25.23;;
40669;SDS011;26355;45.528;9.234;2023-03-01T01:06:37;41.50;;;26.00;;
40669;SDS011;26355;45.528;9.234;2023-03-01T01:09:07;41.58;;;25.95;;
40669;SDS011;26355;45.528;9.234;2023-03-01T01:11:42;38.35;;;25.13;;
40669;SDS011;26355;45.528;9.234;2023-03-01T01:14:09;38.92;;;26.05;;
40669;SDS011;26355;45.528;9.234;2023-03-01T01:16:35;41.45;;;26.08;;
40669;SDS011;26355;45.528;9.234;2023-03-01T01:19:00;39.72;;;25.48;;
40669;SDS011;26355;45.528;9.234;2023-03-01T01:21:26;40.13;;;25.73;;
40669;SDS011;26355;45.528;9.234;2023-03-01T01:23:52;40.90;;;26.33;;
40669;SDS011;26355;45.528;9.234;2023-03-01T01:26:19;43.00;;;26.25;;
40669;SDS011;26355;45.528;9.234;2023-03-01T01:28:47;42.17;;;26.10;;
40669;SDS011;26355;45.528;9.234;2023-03-01T01:31:14;39.33;;;24.38;;
40669;SDS011;26355;45.528;9.234;2023-03-01T01:33:40;37.38;;;24.50;;
40669;SDS011;26355;45.528;9.234;2023-03-01T01:36:06;40.13;;;24.50;;
40669;SDS011;26355;45.528;9.234;2023-03-01T01:38:33;40.05;;;22.88;;
40669;SDS011;26355;45.528;9.234;2023-03-01T01:40:59;37.90;;;23.02;;
40669;SDS011;26355;45.528;9.234;2023-03-01T01:43:27;39.72;;;23.98;;
40669;SDS011;26355;45.528;9.234;2023-03-01T01:46:06;37.95;;;23.85;;
40669;SDS011;26355;45.528;9.234;2023-03-01T01:48:45;38.88;;;22.92;;
40669;SDS011;26355;45.528;9.234;2023-03-01T01:51:17;38.67;;;24.63;;
40669;SDS011;26355;45.528;9.234;2023-03-01T01:53:46;35.35;;;22.23;;
40669;SDS011;26355;45.528;9.234;2023-03-01T01:56:16;36.22;;;23.23;;
40669;SDS011;26355;45.528;9.234;2023-03-01T02:01:09;34.08;;;21.45;;
40669;SDS011;26355;45.528;9.234;2023-03-01T02:03:37;39.63;;;22.02;;
40669;SDS011;26355;45.528;9.234;2023-03-01T02:06:11;38.30;;;22.88;;
40669;SDS011;26355;45.528;9.234;2023-03-01T02:08:40;34.65;;;22.08;;
40669;SDS011;26355;45.528;9.234;2023-03-01T02:11:07;37.42;;;22.00;;
40669;SDS011;26355;45.528;9.234;2023-03-01T02:13:34;35.97;;;22.57;;
40669;SDS011;26355;45.528;9.234;2023-03-01T02:16:02;36.03;;;22.20;;
40669;SDS011;26355;45.528;9.234;2023-03-01T02:18:35;38.72;;;22.35;;
40669;SDS011;26355;45.528;9.234;2023-03-01T02:21:05;35.83;;;21.45;;
40669;SDS011;26355;45.528;9.234;2023-03-01T02:23:40;36.03;;;22.60;;
40669;SDS011;26355;45.528;9.234;2023-03-01T02:26:07;34.65;;;22.20;;
40669;SDS011;26355;45.528;9.234;2023-03-01T02:28:40;34.25;;;21.50;;
40669;SDS011;26355;45.528;9.234;2023-03-01T02:31:08;34.45;;;21.33;;
40669;SDS011;26355;45.528;9.234;2023-03-01T02:33:54;39.97;;;21.83;;
40669;SDS011;26355;45.528;9.234;2023-03-01T02:36:23;35.53;;;21.92;;
40669;SDS011;26355;45.528;9.234;2023-03-01T02:38:54;37.92;;;21.77;;
40669;SDS011;26355;45.528;9.234;2023-03-01T02:41:22;35.85;;;21.65;;
40669;SDS011;26355;45.528;9.234;2023-03-01T02:43:51;35.28;;;22.63;;
40669;SDS011;26355;45.528;9.234;2023-03-01T02:46:21;36.83;;;22.27;;
40669;SDS011;26355;45.528;9.234;2023-03-01T02:48:50;32.65;;;20.85;;
40669;SDS011;26355;45.528;9.234;2023-03-01T02:56:14;37.28;;;22.38;;
40669;SDS011;26355;45.528;9.234;2023-03-01T02:58:41;36.72;;;23.40;;
40669;SDS011;26355;45.528;9.234;2023-03-01T03:01:10;36.03;;;22.85;;
40669;SDS011;26355;45.528;9.234;2023-03-01T03:03:36;34.63;;;20.83;;
40669;SDS011;26355;45.528;9.234;2023-03-01T03:06:02;32.72;;;21.10;;
40669;SDS011;26355;45.528;9.234;2023-03-01T03:08:27;36.13;;;21.95;;
40669;SDS011;26355;45.528;9.234;2023-03-01T03:10:53;34.92;;;21.75;;
40669;SDS011;26355;45.528;9.234;2023-03-01T03:13:18;35.53;;;21.13;;
40669;SDS011;26355;45.528;9.234;2023-03-01T03:15:44;34.05;;;21.65;;
40669;SDS011;26355;45.528;9.234;2023-03-01T03:18:11;38.40;;;22.40;;
40669;SDS011;26355;45.528;9.234;2023-03-01T03:20:40;35.75;;;21.38;;
40669;SDS011;26355;45.528;9.234;2023-03-01T03:23:06;35.03;;;21.30;;
40669;SDS011;26355;45.528;9.234;2023-03-01T03:25:32;36.47;;;22.65;;
40669;SDS011;26355;45.528;9.234;2023-03-01T03:28:02;41.58;;;22.45;;
40669;SDS011;26355;45.528;9.234;2023-03-01T03:30:34;39.17;;;23.42;;
40669;SDS011;26355;45.528;9.234;2023-03-01T03:33:03;35.85;;;23.02;;
40669;SDS011;26355;45.528;9.234;2023-03-01T03:35:31;38.55;;;24.17;;
40669;SDS011;26355;45.528;9.234;2023-03-01T03:37:59;36.90;;;21.90;;
40669;SDS011;26355;45.528;9.234;2023-03-01T03:40:38;35.40;;;22.65;;
40669;SDS011;26355;45.528;9.234;2023-03-01T03:43:09;35.05;;;22.42;;
40669;SDS011;26355;45.528;9.234;2023-03-01T03:45:37;35.33;;;21.92;;
40669;SDS011;26355;45.528;9.234;2023-03-01T03:48:04;38.90;;;21.42;;
40669;SDS011;26355;45.528;9.234;2023-03-01T03:50:31;34.22;;;22.20;;
40669;SDS011;26355;45.528;9.234;2023-03-01T03:52:57;39.78;;;23.17;;
40669;SDS011;26355;45.528;9.234;2023-03-01T03:55:22;34.83;;;22.17;;
40669;SDS011;26355;45.528;9.234;2023-03-01T03:57:52;36.38;;;22.60;;
40669;SDS011;26355;45.528;9.234;2023-03-01T04:00:19;37.53;;;22.35;;
40669;SDS011;26355;45.528;9.234;2023-03-01T04:02:49;37.72;;;24.13;;
40669;SDS011;26355;45.528;9.234;2023-03-01T04:05:16;35.22;;;22.63;;
40669;SDS011;26355;45.528;9.234;2023-03-01T04:07:43;35.72;;;21.95;;
40669;SDS011;26355;45.528;9.234;2023-03-01T04:10:11;36.67;;;22.55;;
40669;SDS011;26355;45.528;9.234;2023-03-01T04:12:40;37.83;;;23.45;;
40669;SDS011;26355;45.528;9.234;2023-03-01T04:15:08;38.75;;;23.75;;
40669;SDS011;26355;45.528;9.234;2023-03-01T04:17:40;36.38;;;23.23;;
40669;SDS011;26355;45.528;9.234;2023-03-01T04:20:10;35.78;;;25.17;;
40669;SDS011;26355;45.528;9.234;2023-03-01T04:22:38;37.28;;;21.38;;
40669;SDS011;26355;45.528;9.234;2023-03-01T04:25:04;44.20;;;24.20;;
40669;SDS011;26355;45.528;9.234;2023-03-01T04:27:34;36.83;;;23.03;;
40669;SDS011;26355;45.528;9.234;2023-03-01T04:30:00;39.28;;;23.70;;
40669;SDS011;26355;45.528;9.234;2023-03-01T04:32:27;28.10;;;17.98;;
40669;SDS011;26355;45.528;9.234;2023-03-01T04:34:53;38.30;;;23.92;;
40669;SDS011;26355;45.528;9.234;2023-03-01T04:37:21;38.15;;;23.13;;
40669;SDS011;26355;45.528;9.234;2023-03-01T04:39:48;39.70;;;25.73;;
40669;SDS011;26355;45.528;9.234;2023-03-01T04:42:14;41.15;;;23.98;;
40669;SDS011;26355;45.528;9.234;2023-03-01T04:44:41;38.97;;;23.58;;
40669;SDS011;26355;45.528;9.234;2023-03-01T04:47:07;38.60;;;24.02;;
40669;SDS011;26355;45.528;9.234;2023-03-01T04:49:33;39.20;;;23.58;;
40669;SDS011;26355;45.528;9.234;2023-03-01T04:51:58;41.00;;;24.38;;
40669;SDS011;26355;45.528;9.234;2023-03-01T04:54:26;41.22;;;24.52;;
40669;SDS011;26355;45.528;9.234;2023-03-01T04:56:56;40.60;;;24.27;;
40669;SDS011;26355;45.528;9.234;2023-03-01T04:59:21;42.88;;;23.25;;
40669;SDS011;26355;45.528;9.234;2023-03-01T05:01:47;40.45;;;24.23;;
40669;SDS011;26355;45.528;9.234;2023-03-01T05:04:14;36.08;;;22.45;;
40669;SDS011;26355;45.528;9.234;2023-03-01T05:06:39;40.88;;;23.60;;
40669;SDS011;26355;45.528;9.234;2023-03-01T05:09:05;36.83;;;23.30;;
40669;SDS011;26355;45.528;9.234;2023-03-01T05:11:30;44.90;;;26.63;;
40669;SDS011;26355;45.528;9.234;2023-03-01T05:14:00;40.60;;;24.17;;
40669;SDS011;26355;45.528;9.234;2023-03-01T05:16:30;38.30;;;24.20;;
40669;SDS011;26355;45.528;9.234;2023-03-01T05:18:57;38.67;;;24.83;;
40669;SDS011;26355;45.528;9.234;2023-03-01T05:21:23;38.03;;;24.33;;
40669;SDS011;26355;45.528;9.234;2023-03-01T05:23:48;41.20;;;24.77;;
40669;SDS011;26355;45.528;9.234;2023-03-01T05:26:15;40.75;;;24.90;;
40669;SDS011;26355;45.528;9.234;2023-03-01T05:28:42;38.47;;;24.38;;
40669;SDS011;26355;45.528;9.234;2023-03-01T05:31:08;45.78;;;25.30;;
40669;SDS011;26355;45.528;9.234;2023-03-01T05:33:37;45.22;;;26.00;;
40669;SDS011;26355;45.528;9.234;2023-03-01T05:36:04;40.13;;;25.75;;
40669;SDS011;26355;45.528;9.234;2023-03-01T05:38:31;42.97;;;25.83;;
40669;SDS011;26355;45.528;9.234;2023-03-01T05:40:56;39.35;;;24.02;;
40669;SDS011;26355;45.528;9.234;2023-03-01T05:43:22;53.58;;;27.63;;
40669;SDS011;26355;45.528;9.234;2023-03-01T05:45:48;48.28;;;27.42;;
40669;SDS011;26355;45.528;9.234;2023-03-01T05:48:13;41.60;;;23.15;;
40669;SDS011;26355;45.528;9.234;2023-03-01T05:50:43;39.78;;;24.73;;
40669;SDS011;26355;45.528;9.234;2023-03-01T05:53:13;38.45;;;23.23;;
40669;SDS011;26355;45.528;9.234;2023-03-01T05:55:43;46.15;;;25.20;;
40669;SDS011;26355;45.528;9.234;2023-03-01T05:58:10;54.67;;;26.37;;
40669;SDS011;26355;45.528;9.234;2023-03-01T06:00:39;43.03;;;25.15;;
40669;SDS011;26355;45.528;9.234;2023-03-01T06:03:05;39.50;;;25.35;;
40669;SDS011;26355;45.528;9.234;2023-03-01T06:05:30;38.75;;;23.55;;
40669;SDS011;26355;45.528;9.234;2023-03-01T06:07:58;40.33;;;23.95;;
40669;SDS011;26355;45.528;9.234;2023-03-01T06:10:24;41.38;;;24.08;;
40669;SDS011;26355;45.528;9.234;2023-03-01T06:12:50;43.17;;;25.20;;
40669;SDS011;26355;45.528;9.234;2023-03-01T06:15:16;43.65;;;25.60;;
40669;SDS011;26355;45.528;9.234;2023-03-01T06:17:42;42.88;;;26.02;;
40669;SDS011;26355;45.528;9.234;2023-03-01T06:20:10;44.50;;;25.77;;
40669;SDS011;26355;45.528;9.234;2023-03-01T06:22:44;81.22;;;36.33;;
40669;SDS011;26355;45.528;9.234;2023-03-01T06:25:11;65.72;;;32.60;;
40669;SDS011;26355;45.528;9.234;2023-03-01T06:27:38;45.78;;;26.65;;
40669;SDS011;26355;45.528;9.234;2023-03-01T06:30:05;45.70;;;25.88;;
40669;SDS011;26355;45.528;9.234;2023-03-01T06:32:31;45.45;;;26.60;;
40669;SDS011;26355;45.528;9.234;2023-03-01T06:34:57;44.35;;;25.15;;
40669;SDS011;26355;45.528;9.234;2023-03-01T06:37:23;43.08;;;25.88;;
40669;SDS011;26355;45.528;9.234;2023-03-01T06:39:49;42.80;;;27.00;;
40669;SDS011;26355;45.528;9.234;2023-03-01T06:42:15;44.95;;;27.52;;
40669;SDS011;26355;45.528;9.234;2023-03-01T06:44:41;42.95;;;25.90;;
40669;SDS011;26355;45.528;9.234;2023-03-01T06:47:07;41.30;;;25.13;;
40669;SDS011;26355;45.528;9.234;2023-03-01T06:49:32;48.08;;;27.35;;
40669;SDS011;26355;45.528;9.234;2023-03-01T06:51:58;41.30;;;27.67;;
40669;SDS011;26355;45.528;9.234;2023-03-01T06:54:23;46.75;;;25.98;;
40669;SDS011;26355;45.528;9.234;2023-03-01T06:56:49;41.67;;;24.90;;
40669;SDS011;26355;45.528;9.234;2023-03-01T06:59:15;44.67;;;26.15;;
40669;SDS011;26355;45.528;9.234;2023-03-01T07:01:41;44.78;;;25.85;;
40669;SDS011;26355;45.528;9.234;2023-03-01T07:04:07;45.70;;;25.98;;
40669;SDS011;26355;45.528;9.234;2023-03-01T07:06:33;43.50;;;25.88;;
40669;SDS011;26355;45.528;9.234;2023-03-01T07:08:58;43.90;;;25.88;;
40669;SDS011;26355;45.528;9.234;2023-03-01T07:11:24;43.72;;;25.33;;
40669;SDS011;26355;45.528;9.234;2023-03-01T07:13:49;44.90;;;25.77;;
40669;SDS011;26355;45.528;9.234;2023-03-01T07:16:15;42.33;;;25.63;;
40669;SDS011;26355;45.528;9.234;2023-03-01T07:18:41;42.33;;;25.45;;
40669;SDS011;26355;45.528;9.234;2023-03-01T07:21:07;44.67;;;25.27;;
40669;SDS011;26355;45.528;9.234;2023-03-01T07:23:33;40.33;;;23.70;;
40669;SDS011;26355;45.528;9.234;2023-03-01T07:25:59;43.28;;;23.80;;
40669;SDS011;26355;45.528;9.234;2023-03-01T07:28:25;35.25;;;18.60;;
40669;SDS011;26355;45.528;9.234;2023-03-01T07:30:52;33.33;;;18.48;;
40669;SDS011;26355;45.528;9.234;2023-03-01T07:33:18;28.38;;;15.70;;
40669;SDS011;26355;45.528;9.234;2023-03-01T07:35:43;27.27;;;13.98;;
40669;SDS011;26355;45.528;9.234;2023-03-01T07:38:09;32.90;;;16.85;;
40669;SDS011;26355;45.528;9.234;2023-03-01T07:40:34;28.13;;;16.13;;
40669;SDS011;26355;45.528;9.234;2023-03-01T07:43:00;29.92;;;15.77;;
40669;SDS011;26355;45.528;9.234;2023-03-01T07:45:27;32.65;;;16.92;;
40669;SDS011;26355;45.528;9.234;2023-03-01T07:47:53;31.40;;;16.95;;
40669;SDS011;26355;45.528;9.234;2023-03-01T07:50:19;31.50;;;17.45;;
40669;SDS011;26355;45.528;9.234;2023-03-01T07:52:46;31.67;;;16.67;;
40669;SDS011;26355;45.528;9.234;2023-03-01T07:57:38;28.67;;;14.90;;
40669;SDS011;26355;45.528;9.234;2023-03-01T08:00:04;26.70;;;13.95;;
40669;SDS011;26355;45.528;9.234;2023-03-01T08:02:31;29.95;;;14.85;;
40669;SDS011;26355;45.528;9.234;2023-03-01T08:04:57;25.77;;;14.63;;
40669;SDS011;26355;45.528;9.234;2023-03-01T08:07:22;26.60;;;13.60;;
40669;SDS011;26355;45.528;9.234;2023-03-01T08:09:48;27.85;;;14.25;;
40669;SDS011;26355;45.528;9.234;2023-03-01T08:12:13;27.58;;;15.23;;
40669;SDS011;26355;45.528;9.234;2023-03-01T08:14:41;30.63;;;14.60;;
40669;SDS011;26355;45.528;9.234;2023-03-01T08:17:06;27.27;;;14.95;;
40669;SDS011;26355;45.528;9.234;2023-03-01T08:19:32;26.48;;;15.48;;
40669;SDS011;26355;45.528;9.234;2023-03-01T08:21:59;28.88;;;15.60;;
40669;SDS011;26355;45.528;9.234;2023-03-01T08:24:28;28.85;;;16.33;;
40669;SDS011;26355;45.528;9.234;2023-03-01T08:26:54;32.25;;;17.58;;
40669;SDS011;26355;45.528;9.234;2023-03-01T08:29:20;31.60;;;17.50;;
40669;SDS011;26355;45.528;9.234;2023-03-01T08:31:46;31.95;;;18.33;;
40669;SDS011;26355;45.528;9.234;2023-03-01T08:34:14;33.00;;;18.20;;
40669;SDS011;26355;45.528;9.234;2023-03-01T08:36:42;30.55;;;18.08;;
40669;SDS011;26355;45.528;9.234;2023-03-01T08:44:01;29.75;;;15.77;;
40669;SDS011;26355;45.528;9.234;2023-03-01T08:46:27;29.63;;;16.65;;
40669;SDS011;26355;45.528;9.234;2023-03-01T08:48:54;27.08;;;16.10;;
40669;SDS011;26355;45.528;9.234;2023-03-01T08:51:21;29.55;;;16.10;;
40669;SDS011;26355;45.528;9.234;2023-03-01T08:53:48;21.58;;;11.57;;
40669;SDS011;26355;45.528;9.234;2023-03-01T08:56:14;27.67;;;14.93;;
40669;SDS011;26355;45.528;9.234;2023-03-01T08:58:43;28.20;;;15.93;;
40669;SDS011;26355;45.528;9.234;2023-03-01T09:01:13;27.17;;;15.05;;
40669;SDS011;26355;45.528;9.234;2023-03-01T09:03:41;25.15;;;13.63;;
40669;SDS011;26355;45.528;9.234;2023-03-01T09:06:08;26.67;;;14.35;;
40669;SDS011;26355;45.528;9.234;2023-03-01T09:08:34;26.90;;;15.35;;
40669;SDS011;26355;45.528;9.234;2023-03-01T09:11:01;31.38;;;16.33;;
40669;SDS011;26355;45.528;9.234;2023-03-01T09:15:56;29.77;;;14.48;;
40669;SDS011;26355;45.528;9.234;2023-03-01T09:18:29;26.48;;;15.23;;
40669;SDS011;26355;45.528;9.234;2023-03-01T09:21:03;28.10;;;15.52;;
40669;SDS011;26355;45.528;9.234;2023-03-01T09:23:34;28.55;;;15.85;;
40669;SDS011;26355;45.528;9.234;2023-03-01T09:26:01;28.60;;;16.35;;
40669;SDS011;26355;45.528;9.234;2023-03-01T09:28:27;31.35;;;18.23;;
40669;SDS011;26355;45.528;9.234;2023-03-01T09:30:53;33.55;;;18.70;;
40669;SDS011;26355;45.528;9.234;2023-03-01T09:33:18;33.00;;;19.10;;
40669;SDS011;26355;45.528;9.234;2023-03-01T09:35:44;34.72;;;20.00;;
40669;SDS011;26355;45.528;9.234;2023-03-01T09:38:12;36.33;;;20.23;;
40669;SDS011;26355;45.528;9.234;2023-03-01T09:40:42;35.53;;;20.80;;
40669;SDS011;26355;45.528;9.234;2023-03-01T09:46:03;35.67;;;20.58;;
40669;SDS011;26355;45.528;9.234;2023-03-01T09:48:33;38.90;;;21.30;;
40669;SDS011;26355;45.528;9.234;2023-03-01T09:51:07;35.05;;;19.60;;
40669;SDS011;26355;45.528;9.234;2023-03-01T09:53:41;33.33;;;19.52;;
40669;SDS011;26355;45.528;9.234;2023-03-01T09:56:28;32.95;;;18.77;;
40669;SDS011;26355;45.528;9.234;2023-03-01T10:04:41;34.67;;;19.38;;
40669;SDS011;26355;45.528;9.234;2023-03-01T10:07:32;32.03;;;18.60;;
40669;SDS011;26355;45.528;9.234;2023-03-01T10:10:06;34.30;;;19.67;;
40669;SDS011;26355;45.528;9.234;2023-03-01T10:12:37;29.17;;;17.27;;
40669;SDS011;26355;45.528;9.234;2023-03-01T10:15:22;31.35;;;16.38;;
40669;SDS011;26355;45.528;9.234;2023-03-01T10:18:00;29.67;;;16.98;;
40669;SDS011;26355;45.528;9.234;2023-03-01T10:23:17;30.17;;;17.42;;
40669;SDS011;26355;45.528;9.234;2023-03-01T10:28:37;33.97;;;19.98;;
40669;SDS011;26355;45.528;9.234;2023-03-01T10:31:15;32.78;;;17.67;;
40669;SDS011;26355;45.528;9.234;2023-03-01T10:33:52;29.95;;;17.70;;
40669;SDS011;26355;45.528;9.234;2023-03-01T10:38:47;28.27;;;15.90;;
40669;SDS011;26355;45.528;9.234;2023-03-01T10:41:22;29.55;;;15.50;;
40669;SDS011;26355;45.528;9.234;2023-03-01T10:43:53;24.83;;;14.38;;
40669;SDS011;26355;45.528;9.234;2023-03-01T10:46:30;27.75;;;14.70;;
40669;SDS011;26355;45.528;9.234;2023-03-01T10:49:15;30.55;;;15.00;;
40669;SDS011;26355;45.528;9.234;2023-03-01T10:51:41;27.95;;;14.65;;
40669;SDS011;26355;45.528;9.234;2023-03-01T10:54:15;27.70;;;15.90;;
40669;SDS011;26355;45.528;9.234;2023-03-01T10:56:59;27.98;;;15.75;;
40669;SDS011;26355;45.528;9.234;2023-03-01T10:59:27;27.02;;;16.35;;
40669;SDS011;26355;45.528;9.234;2023-03-01T11:05:13;28.17;;;16.33;;
40669;SDS011;26355;45.528;9.234;2023-03-01T11:07:52;27.33;;;15.75;;
40669;SDS011;26355;45.528;9.234;2023-03-01T11:10:23;28.90;;;16.35;;
40669;SDS011;26355;45.528;9.234;2023-03-01T11:12:50;31.65;;;17.25;;
40669;SDS011;26355;45.528;9.234;2023-03-01T11:15:35;29.25;;;17.15;;
40669;SDS011;26355;45.528;9.234;2023-03-01T11:18:01;30.63;;;17.67;;
40669;SDS011;26355;45.528;9.234;2023-03-01T11:20:31;31.17;;;17.90;;
40669;SDS011;26355;45.528;9.234;2023-03-01T11:23:01;33.95;;;18.55;;
40669;SDS011;26355;45.528;9.234;2023-03-01T11:25:34;33.22;;;18.77;;
40669;SDS011;26355;45.528;9.234;2023-03-01T11:28:03;31.27;;;18.73;;
40669;SDS011;26355;45.528;9.234;2023-03-01T11:30:36;30.52;;;18.25;;
40669;SDS011;26355;45.528;9.234;2023-03-01T11:36:18;31.05;;;17.80;;
40669;SDS011;26355;45.528;9.234;2023-03-01T11:38:48;31.63;;;18.25;;
40669;SDS011;26355;45.528;9.234;2023-03-01T11:41:18;35.90;;;21.30;;
40669;SDS011;26355;45.528;9.234;2023-03-01T11:55:05;34.88;;;20.25;;
40669;SDS011;26355;45.528;9.234;2023-03-01T12:08:35;33.13;;;19.45;;
40669;SDS011;26355;45.528;9.234;2023-03-01T12:25:45;32.22;;;18.48;;
40669;SDS011;26355;45.528;9.234;2023-03-01T12:33:43;31.10;;;17.00;;
40669;SDS011;26355;45.528;9.234;2023-03-01T12:45:12;29.77;;;17.77;;
40669;SDS011;26355;45.528;9.234;2023-03-01T12:50:41;28.17;;;16.98;;
40669;SDS011;26355;45.528;9.234;2023-03-01T12:53:18;32.00;;;18.75;;
40669;SDS011;26355;45.528;9.234;2023-03-01T12:55:45;31.63;;;17.65;;
40669;SDS011;26355;45.528;9.234;2023-03-01T13:00:57;31.08;;;17.45;;
40669;SDS011;26355;45.528;9.234;2023-03-01T13:06:35;29.85;;;17.73;;
40669;SDS011;26355;45.528;9.234;2023-03-01T13:09:11;32.05;;;17.02;;
40669;SDS011;26355;45.528;9.234;2023-03-01T13:11:56;32.40;;;18.75;;
40669;SDS011;26355;45.528;9.234;2023-03-01T13:16:48;31.02;;;17.83;;
40669;SDS011;26355;45.528;9.234;2023-03-01T13:19:16;31.60;;;18.13;;
40669;SDS011;26355;45.528;9.234;2023-03-01T13:21:44;32.63;;;18.02;;
40669;SDS011;26355;45.528;9.234;2023-03-01T13:32:31;32.47;;;17.98;;
40669;SDS011;26355;45.528;9.234;2023-03-01T13:37:42;33.58;;;19.58;;
40669;SDS011;26355;45.528;9.234;2023-03-01T13:42:44;31.65;;;18.77;;
40669;SDS011;26355;45.528;9.234;2023-03-01T13:45:19;29.52;;;17.23;;
40669;SDS011;26355;45.528;9.234;2023-03-01T13:47:49;35.30;;;19.17;;
40669;SDS011;26355;45.528;9.234;2023-03-01T13:50:20;33.20;;;17.73;;
40669;SDS011;26355;45.528;9.234;2023-03-01T13:52:59;36.55;;;20.92;;
40669;SDS011;26355;45.528;9.234;2023-03-01T13:55:46;33.10;;;19.45;;
40669;SDS011;26355;45.528;9.234;2023-03-01T14:03:29;33.90;;;19.27;;
40669;SDS011;26355;45.528;9.234;2023-03-01T14:05:58;33.63;;;18.15;;
40669;SDS011;26355;45.528;9.234;2023-03-01T14:08:33;34.55;;;19.70;;
40669;SDS011;26355;45.528;9.234;2023-03-01T14:11:09;31.55;;;19.13;;
40669;SDS011;26355;45.528;9.234;2023-03-01T14:19:16;35.25;;;20.42;;
40669;SDS011;26355;45.528;9.234;2023-03-01T14:21:45;34.90;;;20.65;;
40669;SDS011;26355;45.528;9.234;2023-03-01T14:24:18;36.35;;;20.63;;
40669;SDS011;26355;45.528;9.234;2023-03-01T14:26:46;36.28;;;20.10;;
40669;SDS011;26355;45.528;9.234;2023-03-01T14:29:23;36.40;;;20.42;;
40669;SDS011;26355;45.528;9.234;2023-03-01T14:32:07;33.20;;;19.67;;
40669;SDS011;26355;45.528;9.234;2023-03-01T14:34:45;35.15;;;19.63;;
40669;SDS011;26355;45.528;9.234;2023-03-01T14:37:26;33.78;;;19.90;;
40669;SDS011;26355;45.528;9.234;2023-03-01T14:39:53;32.50;;;19.92;;
40669;SDS011;26355;45.528;9.234;2023-03-01T14:42:20;34.92;;;19.55;;
40669;SDS011;26355;45.528;9.234;2023-03-01T14:44:49;33.13;;;19.63;;
40669;SDS011;26355;45.528;9.234;2023-03-01T14:47:28;33.55;;;19.13;;
40669;SDS011;26355;45.528;9.234;2023-03-01T14:50:00;35.15;;;19.08;;
40669;SDS011;26355;45.528;9.234;2023-03-01T14:52:51;32.72;;;19.98;;
40669;SDS011;26355;45.528;9.234;2023-03-01T14:55:20;32.53;;;18.55;;
40669;SDS011;26355;45.528;9.234;2023-03-01T14:57:50;31.92;;;17.98;;
40669;SDS011;26355;45.528;9.234;2023-03-01T15:00:24;33.92;;;19.67;;
40669;SDS011;26355;45.528;9.234;2023-03-01T15:02:53;34.75;;;19.27;;
40669;SDS011;26355;45.528;9.234;2023-03-01T15:05:31;36.17;;;19.17;;
40669;SDS011;26355;45.528;9.234;2023-03-01T15:07:58;33.30;;;20.67;;
40669;SDS011;26355;45.528;9.234;2023-03-01T15:10:27;32.17;;;19.35;;
40669;SDS011;26355;45.528;9.234;2023-03-01T15:12:55;32.78;;;19.27;;
40669;SDS011;26355;45.528;9.234;2023-03-01T15:18:13;32.88;;;18.13;;
40669;SDS011;26355;45.528;9.234;2023-03-01T15:20:44;33.28;;;20.13;;
40669;SDS011;26355;45.528;9.234;2023-03-01T15:23:47;36.45;;;20.40;;
40669;SDS011;26355;45.528;9.234;2023-03-01T15:26:03;33.38;;;19.58;;
40669;SDS011;26355;45.528;9.234;2023-03-01T15:28:29;35.10;;;19.95;;
40669;SDS011;26355;45.528;9.234;2023-03-01T15:30:59;37.63;;;21.20;;
40669;SDS011;26355;45.528;9.234;2023-03-01T15:33:34;34.13;;;20.95;;
40669;SDS011;26355;45.528;9.234;2023-03-01T15:36:03;32.70;;;19.27;;
40669;SDS011;26355;45.528;9.234;2023-03-01T15:38:54;35.00;;;19.65;;
40669;SDS011;26355;45.528;9.234;2023-03-01T15:41:27;34.97;;;20.00;;
40669;SDS011;26355;45.528;9.234;2023-03-01T15:44:00;34.60;;;19.77;;
40669;SDS011;26355;45.528;9.234;2023-03-01T15:46:46;32.67;;;19.52;;
40669;SDS011;26355;45.528;9.234;2023-03-01T15:49:55;34.92;;;19.75;;
40669;SDS011;26355;45.528;9.234;2023-03-01T15:52:12;38.90;;;19.25;;
40669;SDS011;26355;45.528;9.234;2023-03-01T15:54:47;32.50;;;19.13;;
40669;SDS011;26355;45.528;9.234;2023-03-01T15:57:13;35.10;;;20.50;;
40669;SDS011;26355;45.528;9.234;2023-03-01T15:59:39;40.28;;;21.10;;
40669;SDS011;26355;45.528;9.234;2023-03-01T16:02:10;38.97;;;21.60;;
40669;SDS011;26355;45.528;9.234;2023-03-01T16:04:37;35.58;;;21.02;;
40669;SDS011;26355;45.528;9.234;2023-03-01T16:07:04;36.45;;;22.35;;
40669;SDS011;26355;45.528;9.234;2023-03-01T16:09:30;35.03;;;20.35;;
40669;SDS011;26355;45.528;9.234;2023-03-01T16:11:55;35.95;;;20.90;;
40669;SDS011;26355;45.528;9.234;2023-03-01T16:14:21;36.03;;;21.17;;
40669;SDS011;26355;45.528;9.234;2023-03-01T16:16:47;38.50;;;22.35;;
40669;SDS011;26355;45.528;9.234;2023-03-01T16:19:13;34.13;;;19.20;;
40669;SDS011;26355;45.528;9.234;2023-03-01T16:21:46;32.67;;;20.10;;
40669;SDS011;26355;45.528;9.234;2023-03-01T16:24:13;33.28;;;19.50;;
40669;SDS011;26355;45.528;9.234;2023-03-01T16:26:39;34.50;;;20.00;;
40669;SDS011;26355;45.528;9.234;2023-03-01T16:29:04;33.10;;;19.00;;
40669;SDS011;26355;45.528;9.234;2023-03-01T16:31:31;35.22;;;19.77;;
40669;SDS011;26355;45.528;9.234;2023-03-01T16:33:57;36.47;;;19.42;;
40669;SDS011;26355;45.528;9.234;2023-03-01T16:36:25;35.78;;;19.83;;
40669;SDS011;26355;45.528;9.234;2023-03-01T16:38:53;35.30;;;20.50;;
40669;SDS011;26355;45.528;9.234;2023-03-01T16:41:20;34.80;;;19.87;;